Terminal Aerodrome Forecast
Issued by NWS

Home | Current Version | Previous Version | Text Only | Print | Product List | Glossary On
Versions: 1 2 3 4 5 6 7 8 9 10 11 12 13 14 15 16 17 18
000
FTUS43 KBIS 311134
TAFMOT
TAF
KMOT 311134Z 3112/0112 31008KT P6SM VCTS SCT080CB BKN150
      TEMPO 3112/3113 VRB15G25KT -TSRA BKN070CB BKN150
     FM311500 29017G24KT P6SM SCT080 SCT150
     FM010200 23005KT P6SM SKC=

USA.gov is the U.S. government's official web portal to all federal, state and local government web resources and services.